Flight Track Log - Related Links

Times and Time Zones

All times are in EDT time to prevent confusion due to time zone crossing. See the N75AW flight status page for this flight to view local times or setup timezone preferences in your user account.

Time Position Orientation Groundspeed Altitude Reporting Facility
EDT Latitude Longitude Course Direction KTS MPH feet Rate Location/Type
Wed 08:09:30 AM 26.0469 -81.6733 163° South 191 220 5,000  Level Miami Center
Wed 08:10:30 AM 25.9981 -81.6436 151° Southeast 185 213 7,000 1,900 Climbing Miami Center
Wed 08:11:30 AM 25.9483 -81.6253 162° South 185 213 8,800 1,700 Climbing Miami Center
Wed 08:12:30 AM 25.8944 -81.6117 167° South 192 221 10,400 1,733 Climbing Miami Center
Wed 08:13:00 AM 25.8005 -81.5882 166° South  Level FlightAware Approximate
Wed 08:14:00 AM 25.7371 -81.5735 163° South  Level FlightAware Approximate
Wed 08:14:30 AM 25.8517 -81.5153 116° Southeast 169 194 14,000  Level Miami Center
Wed 08:15:30 AM 25.8494 -81.4553 92° East 175 201 15,800 1,750 Climbing Miami Center
Wed 08:16:30 AM 25.8450 -81.3953 95° East 188 216 17,500 1,600 Climbing Miami Center
Wed 08:17:30 AM 25.8447 -81.3353 90° East 188 216 19,000 1,300 Climbing Miami Center
Wed 08:18:30 AM 25.8383 -81.2772 97° East 188 216 20,100 500 Climbing Miami Center
Wed 08:19:30 AM 25.8322 -81.1986 95° East 218 251 20,000 -50 Descending Miami Center
Wed 08:20:30 AM 25.8283 -81.1153 93° East 251 289 20,000 50 Level Miami Center
Wed 08:21:30 AM 25.8225 -81.0275 94° East 273 314 20,100 350 Climbing Miami Center
Wed 08:22:30 AM 25.8167 -80.9419 94° East 278 320 20,700 550 Climbing Miami Center
Wed 08:23:30 AM 25.8147 -80.8586 91° East 272 313 21,200 250 Climbing Miami Center
Wed 08:24:30 AM 25.8064 -80.7753 96° East 272 313 21,200  Level Miami Center
Wed 08:25:30 AM 25.8006 -80.6897 94° East 272 313 21,200  Level Miami Center
Wed 08:26:30 AM 25.7944 -80.6019 94° East 277 319 21,200  Level Miami Center
Wed 08:27:30 AM 25.7903 -80.5119 93° East 277 319 21,200  Level Miami Center
Wed 08:28:30 AM 25.7842 -80.4242 94° East 282 325 21,200  Level Miami Center
Wed 08:29:30 AM 25.7778 -80.3361 95° East 287 330 21,200  Level Miami Center
Wed 08:30:30 AM 25.7694 -80.2483 96° East 287 330 21,200  Level Miami Center
Wed 08:31:30 AM 25.7631 -80.1628 95° East 287 330 21,200  Level Miami Center
Wed 08:32:30 AM 25.7589 -80.0750 93° East 287 330 21,200  Level Miami Center
Wed 08:33:30 AM 25.7522 -79.9872 95° East 287 330 21,200  Level Miami Center
Wed 08:34:30 AM 25.7436 -79.8992 96° East 287 330 21,200 -50 Level Miami Center
Wed 08:35:30 AM 25.7392 -79.8092 93° East 287 330 21,100 -50 Descending Miami Center
Wed 08:36:30 AM 25.7328 -79.7214 95° East 293 337 21,100  Level Miami Center
Wed 08:37:30 AM 25.7281 -79.6336 93° East 293 337 21,100  Level Miami Center
Wed 08:38:30 AM 25.7214 -79.5436 95° East 293 337 21,100  Level Miami Center
Wed 08:39:30 AM 25.7147 -79.4558 95° East 293 337 21,100  Level Miami Center
Wed 08:40:30 AM 25.7078 -79.3681 95° East 293 337 21,100  Level Miami Center
Wed 08:41:30 AM 25.7008 -79.2803 95° East 288 331 21,100  Level Miami Center
Wed 08:42:30 AM 25.6919 -79.1947 97° East 288 331 21,100  Level Miami Center
Wed 08:43:30 AM 25.6892 -79.1047 92° East 288 331 21,100  Level Miami Center
Wed 08:44:30 AM 25.6819 -79.0169 95° East 288 331 21,100  Level Miami Center
Wed 08:45:30 AM 25.6728 -78.9408 98° East 288 331 21,100  Level Miami Center
Wed 08:46:30 AM 25.6675 -78.8531 94° East 288 331 21,100  Level Miami Center
Wed 08:47:30 AM 25.6689 -78.7656 89° East 283 326 21,100  Level Miami Center
Wed 08:48:30 AM 25.6719 -78.6756 88° East 283 326 21,100  Level Miami Center
Wed 08:49:30 AM 25.6689 -78.5881 92° East 288 331 21,100  Level Miami Center
Wed 08:50:30 AM 25.6678 -78.5003 91° East 288 331 21,100  Level Miami Center
Wed 08:51:30 AM 25.6689 -78.4106 89° East 287 330 21,100  Level Miami Center
Wed 08:52:30 AM 25.6592 -78.3228 97° East 287 330 21,100  Level Miami Center
Wed 08:53:30 AM 25.6517 -78.2350 95° East 287 330 21,100 -200 Level Miami Center
Wed 08:54:30 AM 25.6400 -78.1450 98° East 292 336 20,700 -750 Descending Miami Center
Wed 08:55:30 AM 25.6303 -78.0481 96° East 302 348 19,600 -1,000 Descending Miami Center
Wed 08:56:30 AM 25.6206 -77.9511 96° East 307 353 18,700 -850 Descending Miami Center
Wed 08:57:30 AM 25.6089 -77.8497 97° East 312 359 17,900 -900 Descending Miami Center
Wed 08:58:30 AM 25.6011 -77.7553 95° East 312 359 16,900 -1,250 Descending Miami Center
Wed 08:59:30 AM 25.5892 -77.6606 98° East 312 359 15,400 -1,400 Descending Miami Center
Wed 09:00:30 AM 25.5792 -77.5683 97° East 307 353 14,100 -1,250 Descending Miami Center
Wed 09:01:30 AM 25.5692 -77.4786 97° East 307 353 12,900 -1,200 Descending Miami Center

Login

Don't have an account? Register now (free) for customized features, flight alerts, and more!